Charlestown, IN (47111)

1:17 PM EST on February 19, 2017 (GMT -0500)
Bethany Farms | | Change Station

Elev 565 ft 38.40 °N, 85.68 °W | Updated 7 seconds ago

Overcast
Overcast
55.4 °F
Feels Like 55.4 °F
N
0.0
Wind Variable Wind from SW
Gusts 0.0 mph

Today
High -- | Low -- °F
--% Chance of Precip.
Yesterday
High -- | Low -- °F
Precip. -- in
Pressure 30.11 in
Visibility 9.0 miles
Clouds Overcast 1500 ft
Dew Point 50 °F
Humidity 81%
Rainfall 0.00 in
Snow Depth Not available.
7:27 AM 6:25 PM
Last Quarter, 41% visible
SPECI KLOU 191813Z 25004KT 9SM OVC015 13/09 A3011 RMK AO2 T01330094
Pressure 30.11 in
Visibility 9.0 miles
Clouds Overcast 1500 ft
Dew Point 50 °F
Humidity 81%
Rainfall 0.00 in
Snow Depth Not available.
7:27 AM 6:25 PM
Last Quarter, 41% visible
SPECI KLOU 191813Z 25004KT 9SM OVC015 13/09 A3011 RMK AO2 T01330094

Get Your Daily Forecast Email!

Thanks for signing up!

Be on the lookout for a verification email in your inbox.

You'll start receiving the daily forecast at 8 AM.

×

10-Day Weather Forecast

Almanac

Astronomy

Feb. 19, 2017 Rise Set
Actual Time
Civil Twilight
Nautical Twilight
Astronomical Twilight
Moon
Length of Visible Light
Length of Day
Tomorrow will be .
, % of the Moon is Illuminated

Today's Extremes

State Highs State Lows

Community

WunderPhotos

Upload Photos

1,962,540 photos uploaded!

WunderBlog® & News

Nearby

Air Quality

  Air Quality AQ Index Pollutant
Not available.

Snow Depth

Station Depth Elevation

Earthquake Activity

City Distance Mag. Time & Date
Minimum magnitude displayed is 2.5.

Coastal Water Temperatures

Place Temperature

Stations

Nearby Weather Stations

Station Location Temp. Windchill Dew Point Humidity Wind Precip. Elev Updated Type
                   

Watches & Warnings

There are currently no watches in effect.